Virtual Norwegian is not affiliated with Norwegian Air Shuttle in any way.
If you are looking for the real "Norwegian", or you wish to book Norwegian flights, please visit Norwegian.com


We use cookies to ensure you get the best experience on our website.   ACCEPT

ENGM - OSL - Oslo (Gardermoen)

General Info Alternate Airport
ICAO: ENGM Elevation: 681 ft ICAO: ENTO
IATA: OSL Country: Norway IATA: TRF
City: Oslo Charts: Log in to view charts City: Sandefjord
Name: Gardermoen Hub: Yes Name Torp
General Info
ICAO: ENGM
IATA: OSL
City: Oslo
Name: Gardermoen
Elevation: 681 ft
Country: Norway
Charts: Log in to view charts
Hub: Yes
 
Alternate Airport
ICAO: ENTO
IATA: TRF
City: Sandefjord
Name: Torp

Weather
200320Z 19007KT CAVOK 02/M01 Q0991
Weather
200320Z 19007KT CAVOK 02/M01 Q0991

Runway Info
01L
Length ILS/LOC Course
3600 m 110.30 013
01R
Length ILS/LOC Course
2950 m 111.95 013
19L
Length ILS/LOC Course
2950 m 110.55 193
19R
Length ILS/LOC Course
3600 m 111.30 193

NOTAMs
NOTAMs currently unavailable.
NOTAMs
NOTAMs currently unavailable

Route map
Airport
Airport (hub)